Latest Weather Observations for Kilmore Gap

IDV60801

Issued at 5:02 pm EST Sunday 28 August 2016 (issued every 30 minutes, with the page automatically refreshed every 10 minutes)

About weather observations | Map of weather stations | Latest weather observations for VIC | Other Formats
Station Details ID: 088162 Name: KILMORE GAP Lat: -37.38 Lon: 144.97 Height: 527.8 m
Data from the previous 72 hours. | See also: Recent months at Kilmore Gap
Date/Time
EST
Temp
°C
App
Temp
°C
Dew
Point
°C
Rel
Hum
%
Delta-T
°C
Wind Press
QNH
hPa
Press
MSL
hPa
Rain since
9am
mm
Dir  Spd
km/h
Gust
km/h
Spd
kts
Gust
kts
28/05:00pm 10.7 5.8 6.8 77 1.9 N 22 28 12 15 1020.1 - 0.0
28/04:30pm 11.1 6.3 7.4 78 1.8 N 22 30 12 16 1020.1 - 0.0
28/04:00pm 11.2 6.4 7.5 78 1.8 N 22 28 12 15 1020.1 - 0.0
28/03:30pm 11.0 6.0 6.6 74 2.1 N 22 30 12 16 1020.1 - 0.0
28/03:00pm 12.8 7.8 8.1 73 2.4 N 24 32 13 17 1019.9 1020.8 0.0
28/02:30pm 12.1 7.4 7.6 74 2.3 N 22 30 12 16 1020.0 - 0.0
28/02:00pm 11.8 6.6 7.1 73 2.3 N 24 30 13 16 1019.9 - 0.0
28/01:30pm 10.9 6.0 6.8 76 2.0 N 22 26 12 14 1020.0 - 0.0
28/01:00pm 9.4 3.9 6.1 80 1.6 N 24 30 13 16 1020.2 - 0.0
28/12:30pm 10.6 5.5 7.7 82 1.4 N 24 32 13 17 1020.6 - 0.0
28/12:00pm 8.3 3.2 5.9 85 1.1 N 22 28 12 15 1021.1 1022.0 0.0
28/11:30am 7.4 1.5 5.7 89 0.8 N 26 30 14 16 1021.2 - 0.0
28/11:00am 6.6 0.1 4.9 89 0.8 N 28 32 15 17 1021.2 - 0.0
28/10:30am 6.1 0.0 4.6 90 0.7 N 26 32 14 17 1021.2 - 0.0
28/10:00am 5.7 -0.9 4.3 91 0.6 N 28 35 15 19 1021.0 - 0.0
28/09:30am 5.4 -1.3 3.7 89 0.7 N 28 33 15 18 1021.1 - 0.0
28/09:00am 5.2 -1.1 3.7 90 0.6 N 26 35 14 19 1021.1 1022.0 0.0
28/08:30am 5.0 -1.7 3.7 91 0.6 N 28 33 15 18 1021.1 - 0.0
28/08:00am 4.8 -1.9 3.6 92 0.5 N 28 35 15 19 1020.8 - 0.0
28/07:30am 4.6 -1.8 3.4 92 0.5 N 26 32 14 17 1020.6 - 0.0
28/07:00am 4.4 -2.4 3.2 92 0.5 N 28 33 15 18 1020.1 - 0.0
28/06:30am 4.2 -1.8 3.3 94 0.4 N 24 28 13 15 1020.0 - 0.0
28/06:00am 4.5 -2.3 3.3 92 0.5 N 28 33 15 18 1019.6 1020.5 0.0
28/05:30am 4.5 -2.6 3.5 93 0.4 N 30 35 16 19 1019.5 - 0.0
28/05:00am 4.5 -1.8 3.6 94 0.4 N 26 32 14 17 1019.5 - 0.0
28/04:30am 4.5 -1.8 3.6 94 0.4 N 26 32 14 17 1019.6 - 0.0
28/04:00am 4.4 -1.9 3.8 96 0.3 N 26 32 14 17 1019.5 - 0.0
28/03:30am 4.5 -1.8 3.8 95 0.3 N 26 33 14 18 1019.4 - 0.0
28/03:00am 4.8 -1.5 3.6 92 0.5 N 26 32 14 17 1019.2 1020.1 0.0
28/02:30am 5.0 -1.7 3.8 92 0.5 N 28 32 15 17 1019.5 - 0.0
28/02:00am 5.3 -2.2 3.6 89 0.7 N 32 39 17 21 1019.3 - 0.0
28/01:30am 5.6 -1.8 3.8 88 0.8 N 32 39 17 21 1019.3 - 0.0
28/01:00am 6.0 -1.5 3.7 85 1.0 N 32 43 17 23 1019.3 - 0.0
28/12:30am 6.2 -1.4 3.7 84 1.1 N 33 43 18 23 1019.2 - 0.0
28/12:00am 6.1 -1.3 4.1 87 0.9 N 32 43 17 23 1019.5 1020.4 0.0
 
Date/Time
EST
Temp
°C
App
Temp
°C
Dew
Point
°C
Rel
Hum
%
Delta-T
°C
Wind Press
QNH
hPa
Press
MSL
hPa
Rain since
9am
mm
Dir  Spd
km/h
Gust
km/h
Spd
kts
Gust
kts
27/11:30pm 6.3 -1.2 4.5 88 0.8 N 33 41 18 22 1019.5 - 0.0
27/11:00pm 5.9 -1.0 4.4 90 0.7 N 30 37 16 20 1019.5 - 0.0
27/10:30pm 6.0 -1.5 4.3 89 0.8 N 33 39 18 21 1019.8 - 0.0
27/10:00pm 6.2 -0.7 4.7 90 0.7 N 30 37 16 20 1019.9 - 0.0
27/09:30pm 6.5 -0.4 4.7 88 0.8 N 30 35 16 19 1020.4 - 0.0
27/09:00pm 6.7 0.2 4.7 87 0.9 N 28 35 15 19 1020.6 1021.5 0.0
27/08:30pm 6.9 0.0 4.4 84 1.1 N 30 37 16 20 1020.4 - 0.0
27/08:00pm 6.9 -0.6 4.4 84 1.1 N 33 39 18 21 1019.8 - 0.0
27/07:30pm 7.0 -0.6 4.1 82 1.3 N 33 41 18 22 1019.9 - 0.0
27/07:00pm 7.6 -1.5 4.0 78 1.6 N 41 52 22 28 1018.9 - 0.0
27/06:30pm 7.6 -1.1 4.0 78 1.6 N 39 46 21 25 1018.9 - 0.0
27/06:00pm 7.6 -0.3 4.4 80 1.4 N 35 43 19 23 1019.1 1020.0 0.0
27/05:30pm 8.0 -0.3 4.2 77 1.7 N 37 46 20 25 1018.8 - 0.0
27/05:00pm 8.4 1.1 4.4 76 1.8 N 32 39 17 21 1018.8 - 0.0
27/04:30pm 8.5 0.6 4.3 75 1.9 N 35 43 19 23 1018.4 - 0.0
27/04:00pm 8.8 1.4 4.2 73 2.1 N 32 39 17 21 1018.9 - 0.0
27/03:30pm 9.4 1.5 4.2 70 2.4 NNW 35 44 19 24 1018.7 - 0.0
27/03:00pm 9.7 1.4 4.1 68 2.5 NNW 37 48 20 26 1018.9 1019.7 0.0
27/02:30pm 9.6 1.6 4.0 68 2.5 N 35 46 19 25 1019.2 - 0.0
27/02:00pm 10.2 2.3 4.1 66 2.8 NNW 35 46 19 25 1019.5 - 0.0
27/01:30pm 9.7 2.5 4.9 72 2.2 NNW 32 44 17 24 1019.6 - 0.0
27/01:00pm 9.5 2.7 5.1 74 2.0 NNW 30 39 16 21 1020.3 - 0.0
27/12:30pm 8.9 1.5 4.1 72 2.2 NNW 32 39 17 21 1020.7 - 0.0
27/12:00pm 9.4 3.0 5.0 74 2.0 NNW 28 37 15 20 1021.4 1022.3 0.0
27/11:30am 8.4 1.7 3.7 72 2.1 NNW 28 39 15 21 1021.4 - 0.0
27/11:00am 8.5 1.1 3.8 72 2.1 NNW 32 44 17 24 1021.5 - 0.0
27/10:30am 8.2 0.1 3.3 71 2.2 NNW 35 48 19 26 1021.3 - 0.0
27/10:00am 7.8 -0.1 2.5 69 2.3 NNW 33 46 18 25 1021.5 - 0.0
27/09:30am 8.0 2.6 4.4 78 1.6 NNW 22 30 12 16 1021.8 - 0.0
27/09:00am 6.5 1.3 3.3 80 1.4 NNW 20 28 11 15 1022.2 1023.2 0.0
27/08:30am 6.5 1.3 3.7 82 1.2 NNW 20 24 11 13 1022.3 - 0.0
27/08:00am 5.7 0.1 3.2 84 1.1 NNW 22 26 12 14 1022.3 - 0.0
27/07:30am 4.6 -1.2 2.5 86 0.9 NNW 22 28 12 15 1022.0 - 0.0
27/07:00am 4.2 -1.6 2.2 87 0.8 N 22 28 12 15 1021.8 - 0.0
27/06:30am 3.9 -2.0 1.9 87 0.8 NNW 22 26 12 14 1021.2 - 0.0
27/06:00am 4.3 -2.3 1.8 84 1.0 NNW 26 30 14 16 1020.9 1021.8 0.0
27/05:30am 4.3 -2.0 1.8 84 1.0 NNW 24 30 13 16 1020.8 - 0.0
27/05:00am 4.2 -1.3 1.9 85 0.9 N 20 24 11 13 1020.8 - 0.0
27/04:30am 3.8 -1.0 2.5 91 0.5 N 17 20 9 11 1020.8 - 0.0
27/04:00am 4.4 0.0 2.6 88 0.8 N 15 17 8 9 1020.8 - 0.0
27/03:30am 4.9 0.8 2.4 84 1.0 NNW 13 19 7 10 1020.7 - 0.0
27/03:00am 6.0 1.4 1.7 74 1.8 NNW 15 20 8 11 1020.9 1021.8 0.0
27/02:30am 5.9 1.3 1.8 75 1.7 NNW 15 19 8 10 1021.1 - 0.0
27/02:00am 5.5 1.0 2.3 80 1.3 NW 15 20 8 11 1021.4 - 0.0
27/01:30am 5.8 0.9 2.1 77 1.5 NNW 17 20 9 11 1021.6 - 0.0
27/01:00am 5.9 0.7 2.4 78 1.5 NNW 19 24 10 13 1021.8 - 0.0
27/12:30am 6.0 1.1 2.1 76 1.6 NNW 17 20 9 11 1021.9 - 0.0
27/12:00am 5.7 0.7 1.6 75 1.7 NNW 17 20 9 11 1021.8 1022.7 0.0
 
Date/Time
EST
Temp
°C
App
Temp
°C
Dew
Point
°C
Rel
Hum
%
Delta-T
°C
Wind Press
QNH
hPa
Press
MSL
hPa
Rain since
9am
mm
Dir  Spd
km/h
Gust
km/h
Spd
kts
Gust
kts
26/11:30pm 5.8 0.8 1.3 73 1.8 NW 17 20 9 11 1022.1 - 0.0
26/11:00pm 5.6 1.0 1.3 74 1.8 WNW 15 17 8 9 1022.0 - 0.0
26/10:30pm 6.2 1.5 1.1 70 2.1 NNW 15 19 8 10 1022.0 - 0.0
26/10:00pm 6.1 1.8 1.1 70 2.0 NNW 13 17 7 9 1021.8 - 0.0
26/09:30pm 6.2 2.0 1.5 72 1.9 NNW 13 17 7 9 1021.8 - 0.0
26/09:00pm 6.3 2.1 1.6 72 1.9 NW 13 19 7 10 1021.8 1022.7 0.0
26/08:30pm 6.3 2.9 2.0 74 1.8 NW 9 13 5 7 1021.8 - 0.0
26/08:00pm 6.5 3.3 2.8 77 1.6 WNW 9 13 5 7 1021.9 - 0.0
26/07:30pm 6.7 3.5 2.8 76 1.7 WNW 9 13 5 7 1021.7 - 0.0
26/07:00pm 6.8 4.0 2.9 76 1.7 WNW 7 9 4 5 1021.5 - 0.0
26/06:30pm 7.0 4.2 3.1 76 1.7 W 7 9 4 5 1021.4 - 0.0
26/06:00pm 7.2 4.4 3.1 75 1.8 WNW 7 11 4 6 1021.1 1022.0 0.0
26/05:30pm 7.6 4.9 2.5 70 2.2 WSW 6 7 3 4 1020.7 - 0.0
26/05:00pm 8.0 4.7 2.5 68 2.4 WSW 9 11 5 6 1020.6 - 0.0
26/04:30pm 8.2 4.1 2.2 66 2.6 W 13 17 7 9 1020.4 - 0.0
26/04:00pm 8.4 4.3 2.0 64 2.7 WSW 13 19 7 10 1020.3 - 0.0
26/03:30pm 8.4 5.2 3.1 69 2.3 SW 9 15 5 8 1020.1 - 0.0
26/03:00pm 8.5 4.3 1.9 63 2.8 WSW 13 19 7 10 1020.1 1021.0 0.0
26/02:30pm 8.5 4.0 2.3 65 2.7 WSW 15 20 8 11 1020.2 - 0.0
26/02:00pm 8.5 3.8 2.9 68 2.5 W 17 22 9 12 1020.3 - 0.0
26/01:30pm 8.4 3.6 2.8 68 2.4 WSW 17 22 9 12 1020.6 - 0.0
26/01:00pm 8.4 4.3 2.4 66 2.6 WSW 13 20 7 11 1020.8 - 0.0
26/12:30pm 8.4 3.6 2.4 66 2.6 W 17 24 9 13 1021.0 - 0.0
26/12:00pm 8.3 3.6 3.2 70 2.2 WSW 17 22 9 12 1021.3 1022.2 0.0
26/11:30am 7.9 4.1 3.8 75 1.8 WSW 13 19 7 10 1021.5 - 0.0
26/11:00am 7.1 3.4 4.4 83 1.2 SSW 13 22 7 12 1021.6 - 0.0
26/10:30am 7.6 3.8 3.8 77 1.7 WSW 13 20 7 11 1021.5 - 0.0
26/10:00am 7.2 3.9 4.3 82 1.3 W 11 15 6 8 1021.5 - 0.0
26/09:30am 6.4 2.6 4.1 85 1.0 W 13 17 7 9 1021.5 - 0.0
26/09:00am 5.9 1.8 4.2 89 0.7 W 15 19 8 10 1021.4 1022.3 1.2
26/08:30am 5.5 2.5 4.2 91 0.6 W 9 17 5 9 1021.4 - 1.2
26/08:00am 4.9 1.9 4.2 95 0.3 W 9 13 5 7 1021.2 - 1.2
26/07:30am 4.5 1.1 4.1 97 0.2 W 11 17 6 9 1020.9 - 1.2
26/07:00am 4.3 0.1 3.7 96 0.3 W 15 17 8 9 1020.7 - 1.2
26/06:30am 4.2 0.0 3.6 96 0.3 W 15 19 8 10 1020.1 - 1.2
26/06:00am 4.3 0.4 3.4 94 0.4 WSW 13 19 7 10 1019.9 1020.8 1.2
26/05:30am 4.3 0.1 3.7 96 0.3 WSW 15 19 8 10 1019.6 - 1.2
26/05:00am 4.2 0.0 3.6 96 0.3 WSW 15 20 8 11 1019.3 - 1.2
26/04:30am 4.2 -0.4 3.5 95 0.3 SW 17 22 9 12 1019.0 - 1.2
26/04:00am 4.3 -0.7 3.6 95 0.3 SW 19 24 10 13 1018.7 - 1.2
26/03:30am 4.0 -2.0 3.3 95 0.3 SW 24 30 13 16 1018.6 - 1.2
26/03:00am 3.7 -1.6 3.1 96 0.3 SW 20 24 11 13 1018.4 1019.3 1.2
26/02:30am 3.6 -1.1 3.3 98 0.1 SW 17 20 9 11 1018.6 - 1.2
26/02:00am 3.7 -0.6 3.4 98 0.1 WSW 15 19 8 10 1018.8 - 1.2
26/01:30am 3.9 -0.3 3.6 98 0.1 W 15 19 8 10 1019.0 - 1.2
26/01:03am 4.3 -0.6 4.0 98 0.1 SW 19 22 10 12 1018.9 - 1.0
26/01:00am 4.3 -0.6 4.0 98 0.1 SW 19 22 10 12 1018.9 - 1.0
26/12:56am 4.3 -0.6 4.0 98 0.1 SW 19 26 10 14 1018.9 - 1.0
26/12:51am 4.2 -0.7 3.9 98 0.1 SW 19 26 10 14 1019.0 - 1.0
26/12:30am 4.2 -0.9 3.9 98 0.1 SW 20 24 11 13 1018.8 - 0.8
26/12:22am 4.1 -0.9 3.8 98 0.1 SW 19 26 10 14 1018.8 - 0.8
26/12:00am 4.0 -0.6 3.7 98 0.1 SW 17 22 9 12 1018.7 1019.5 0.8
 
Date/Time
EST
Temp
°C
App
Temp
°C
Dew
Point
°C
Rel
Hum
%
Delta-T
°C
Wind Press
QNH
hPa
Press
MSL
hPa
Rain since
9am
mm
Dir  Spd
km/h
Gust
km/h
Spd
kts
Gust
kts
25/11:30pm 4.1 -0.9 3.8 98 0.1 SW 19 24 10 13 1018.7 - 0.8
25/11:24pm 4.2 -0.7 3.9 98 0.1 SW 19 24 10 13 1018.6 - 0.8
25/11:00pm 4.5 -0.6 4.2 98 0.1 SW 20 26 11 14 1018.4 - 0.8
25/10:30pm 4.5 -0.4 4.1 97 0.2 SW 19 26 10 14 1018.3 - 0.8
25/10:00pm 4.8 -0.1 4.2 96 0.3 SSW 19 26 10 14 1018.2 - 0.8
25/09:30pm 5.1 0.1 4.5 96 0.3 SSW 20 30 11 16 1018.0 - 0.8
25/09:00pm 5.1 -0.3 4.4 95 0.3 SSW 22 32 12 17 1017.8 1018.7 0.8
25/08:30pm 5.2 0.1 4.3 94 0.4 SSW 20 28 11 15 1017.8 - 0.8
25/08:00pm 5.2 0.2 4.5 95 0.3 SSW 20 28 11 15 1017.7 - 0.8
25/07:30pm 5.7 1.2 4.2 90 0.7 SSW 17 22 9 12 1017.5 - 0.8
25/07:28pm 5.6 1.1 4.1 90 0.7 SSW 17 22 9 12 1017.5 - 0.8
25/07:00pm 5.6 1.4 3.9 89 0.7 SSW 15 20 8 11 1017.2 - 0.8
25/06:30pm 5.7 1.5 4.0 89 0.7 SSW 15 28 8 15 1016.8 - 0.8
25/06:00pm 5.9 1.8 4.1 88 0.8 S 15 22 8 12 1016.3 1017.2 0.8
25/05:30pm 6.2 1.3 4.0 86 1.0 S 19 26 10 14 1016.0 - 0.8

Other Formats:

Comma delimited format used in spreadsheet applications
http://www.bom.gov.au/fwo/IDV60801/IDV60801.94860.axf

JavaScript Object Notation format (JSON) in row-major order
http://www.bom.gov.au/fwo/IDV60801/IDV60801.94860.json